createdAt,value
2022-11-29T00:00:24.965Z,81.39
2022-11-29T00:02:55.902Z,81.46
2022-11-29T00:05:26.192Z,81.55
2022-11-29T00:07:56.267Z,81.34
2022-11-29T00:10:26.422Z,81.21
2022-11-29T00:12:56.478Z,81.68
2022-11-29T00:15:29.181Z,81.43
2022-11-29T00:17:59.239Z,81.15
2022-11-29T00:20:29.270Z,81.49
2022-11-29T00:22:59.260Z,81.49
2022-11-29T00:25:29.316Z,81.67
2022-11-29T00:27:59.935Z,81.99
2022-11-29T00:30:32.675Z,81.29
2022-11-29T00:33:03.859Z,81.92
2022-11-29T00:35:34.632Z,81.94
2022-11-29T00:38:04.768Z,81.48
2022-11-29T00:40:34.759Z,81.79
2022-11-29T00:43:04.872Z,81.43
2022-11-29T00:45:37.531Z,81.76
2022-11-29T00:48:08.213Z,81.77
2022-11-29T00:50:38.231Z,81.93
2022-11-29T00:53:08.405Z,81.22
2022-11-29T00:55:38.492Z,80.87
2022-11-29T00:58:09.063Z,81.20
2022-11-29T01:00:41.765Z,81.51
2022-11-29T01:03:12.115Z,81.44
2022-11-29T01:05:43.066Z,81.90
2022-11-29T01:08:13.777Z,82.22
2022-11-29T01:10:43.993Z,82.82
2022-11-29T01:13:14.723Z,82.77
2022-11-29T01:15:47.711Z,82.92
2022-11-29T01:18:17.736Z,82.92
2022-11-29T01:20:47.850Z,82.71
2022-11-29T01:23:17.915Z,82.92
2022-11-29T01:25:59.035Z,82.84
2022-11-29T01:28:29.931Z,82.66
2022-11-29T01:31:08.576Z,82.46
2022-11-29T01:33:39.001Z,82.36
2022-11-29T01:36:11.040Z,82.15
2022-11-29T01:38:42.540Z,82.32
2022-11-29T01:41:16.111Z,82.76
2022-11-29T01:44:01.656Z,81.83
2022-11-29T01:46:36.587Z,81.84
2022-11-29T01:49:11.933Z,82.07
2022-11-29T01:51:45.176Z,81.66
2022-11-29T01:54:16.815Z,82.03
2022-11-29T01:56:49.481Z,82.39
2022-11-29T01:59:23.431Z,81.92
2022-11-29T02:01:56.110Z,81.99
2022-11-29T02:04:26.361Z,81.81
2022-11-29T02:06:56.932Z,81.91
2022-11-29T02:09:27.093Z,82.18
2022-11-29T02:12:10.567Z,81.91
2022-11-29T02:14:54.907Z,82.11
2022-11-29T02:17:36.111Z,81.54
2022-11-29T02:20:32.508Z,81.79
2022-11-29T02:23:15.902Z,81.61
2022-11-29T02:26:02.941Z,81.57
2022-11-29T02:29:02.980Z,81.39
2022-11-29T02:31:58.357Z,81.74
2022-11-29T02:35:00.142Z,81.39
2022-11-29T02:37:55.287Z,81.46
2022-11-29T02:40:56.894Z,81.55
2022-11-29T02:43:52.636Z,81.34
2022-11-29T02:46:45.605Z,81.50
2022-11-29T02:49:25.704Z,81.41
2022-11-29T02:52:03.143Z,81.05
2022-11-29T02:54:41.542Z,80.53
2022-11-29T02:57:24.495Z,80.76
2022-11-29T03:00:04.759Z,80.67
2022-11-29T03:02:42.566Z,80.20
2022-11-29T03:05:21.740Z,80.19
2022-11-29T03:08:01.485Z,80.74
2022-11-29T03:10:42.012Z,80.63
2022-11-29T03:13:20.875Z,80.46
2022-11-29T03:16:00.545Z,80.40
2022-11-29T03:18:45.226Z,80.24
2022-11-29T03:21:21.959Z,80.31
2022-11-29T03:23:58.191Z,80.47
2022-11-29T03:26:35.248Z,80.34
2022-11-29T03:29:10.385Z,80.17
2022-11-29T03:31:46.623Z,80.27
2022-11-29T03:34:24.225Z,80.08
2022-11-29T03:37:03.243Z,80.28
2022-11-29T03:39:45.531Z,79.78
2022-11-29T03:42:22.531Z,79.90
2022-11-29T03:45:00.133Z,79.85
2022-11-29T03:47:35.016Z,79.65
2022-11-29T03:50:10.032Z,79.65
2022-11-29T03:52:49.299Z,79.63
2022-11-29T03:55:36.211Z,79.48
2022-11-29T03:58:27.796Z,79.44
2022-11-29T04:01:24.853Z,79.87
2022-11-29T04:04:19.020Z,79.50
2022-11-29T04:07:04.440Z,79.51
2022-11-29T04:10:00.240Z,79.69
2022-11-29T04:13:03.166Z,79.58
2022-11-29T04:16:06.365Z,79.60
2022-11-29T04:18:59.014Z,79.35
2022-11-29T04:21:36.508Z,79.19
2022-11-29T04:24:27.576Z,79.50
2022-11-29T04:27:31.881Z,79.50
2022-11-29T04:30:21.990Z,79.64
2022-11-29T04:33:24.601Z,79.19
2022-11-29T04:36:29.939Z,79.35
2022-11-29T04:39:31.668Z,79.23
2022-11-29T04:42:31.552Z,79.22
2022-11-29T04:45:42.792Z,79.13
2022-11-29T04:48:45.687Z,79.25
2022-11-29T04:51:29.051Z,79.49
2022-11-29T04:54:09.867Z,79.58
2022-11-29T04:56:48.344Z,78.92
2022-11-29T04:59:26.874Z,79.06
2022-11-29T05:02:10.940Z,78.89
2022-11-29T05:04:51.348Z,78.63
2022-11-29T05:07:32.336Z,79.08
2022-11-29T05:10:14.021Z,79.01
2022-11-29T05:12:53.484Z,78.88
2022-11-29T05:15:50.692Z,78.65
2022-11-29T05:18:42.974Z,78.98
2022-11-29T05:21:22.029Z,78.55
2022-11-29T05:24:02.531Z,78.89
2022-11-29T05:26:36.730Z,78.80
2022-11-29T05:29:13.728Z,78.76
2022-11-29T05:32:06.018Z,78.65
2022-11-29T05:34:58.053Z,79.00
2022-11-29T05:37:38.262Z,79.18
2022-11-29T05:40:27.837Z,78.91
2022-11-29T05:43:14.192Z,78.71
2022-11-29T05:45:49.943Z,79.08
2022-11-29T05:48:27.684Z,79.00
2022-11-29T05:51:14.321Z,78.66
2022-11-29T05:53:50.351Z,78.67
2022-11-29T05:56:30.564Z,78.54
2022-11-29T05:59:05.406Z,78.52
2022-11-29T06:01:44.609Z,78.77
2022-11-29T06:04:21.363Z,78.85
2022-11-29T06:06:59.759Z,79.05
2022-11-29T06:09:33.562Z,78.56
2022-11-29T06:12:09.924Z,78.52
2022-11-29T06:15:00.393Z,78.27
2022-11-29T06:17:49.986Z,78.65
2022-11-29T06:20:45.311Z,78.83
2022-11-29T06:23:31.595Z,78.43
2022-11-29T06:26:13.870Z,78.57
2022-11-29T06:29:01.892Z,78.63
2022-11-29T06:31:37.918Z,78.75
2022-11-29T06:34:19.547Z,78.74
2022-11-29T06:36:53.869Z,78.60
2022-11-29T06:39:24.606Z,78.53
2022-11-29T06:41:54.683Z,78.77
2022-11-29T06:44:31.383Z,78.63
2022-11-29T06:47:08.762Z,78.33
2022-11-29T06:49:45.658Z,77.57
2022-11-29T06:52:30.443Z,77.45
2022-11-29T06:55:13.543Z,76.33
2022-11-29T06:57:54.859Z,74.83
2022-11-29T07:00:29.922Z,71.01
2022-11-29T07:03:24.576Z,66.17
2022-11-29T07:05:55.636Z,65.46
2022-11-29T07:08:26.976Z,65.67
2022-11-29T07:10:59.712Z,63.68
2022-11-29T07:13:30.454Z,63.71
2022-11-29T07:16:09.705Z,64.16
2022-11-29T07:18:46.327Z,63.08
2022-11-29T07:21:24.255Z,62.87
2022-11-29T07:24:05.542Z,62.04
2022-11-29T07:26:39.863Z,61.00
2022-11-29T07:29:23.510Z,60.53
2022-11-29T07:32:08.489Z,60.65
2022-11-29T07:34:47.391Z,61.46
2022-11-29T07:37:29.211Z,60.92
2022-11-29T07:40:05.723Z,61.59
2022-11-29T07:42:48.612Z,61.92
2022-11-29T07:45:26.825Z,62.23
2022-11-29T07:47:59.470Z,62.95
2022-11-29T07:50:30.725Z,62.97
2022-11-29T07:53:02.076Z,63.60
2022-11-29T07:55:32.552Z,66.36
2022-11-29T07:58:02.653Z,66.36
2022-11-29T08:00:32.836Z,66.58
2022-11-29T08:03:05.596Z,68.31
2022-11-29T08:05:35.627Z,68.48
2022-11-29T08:08:06.775Z,68.42
2022-11-29T08:10:36.895Z,69.47
2022-11-29T08:13:06.911Z,69.26
2022-11-29T08:15:37.065Z,68.73
2022-11-29T08:18:09.847Z,68.97
2022-11-29T08:20:41.775Z,69.14
2022-11-29T08:23:14.456Z,68.81
2022-11-29T08:25:46.046Z,69.46
2022-11-29T08:28:17.138Z,68.92
2022-11-29T08:30:47.230Z,68.67
2022-11-29T08:33:19.885Z,67.88
2022-11-29T08:35:49.912Z,67.50
2022-11-29T08:38:20.005Z,67.64
2022-11-29T08:40:50.229Z,67.33
2022-11-29T08:43:20.260Z,67.08
2022-11-29T08:45:54.505Z,66.82
2022-11-29T08:48:27.591Z,66.16
2022-11-29T08:50:59.232Z,66.51
2022-11-29T08:53:41.918Z,65.89
2022-11-29T08:56:53.367Z,65.95
2022-11-29T08:59:03.115Z,65.63
2022-11-29T09:01:34.276Z,65.82
2022-11-29T09:04:10.569Z,66.37
2022-11-29T09:06:44.587Z,66.76
2022-11-29T09:09:14.813Z,66.84
2022-11-29T09:11:49.182Z,67.14
2022-11-29T09:14:22.493Z,67.00
2022-11-29T09:16:52.616Z,66.58
2022-11-29T09:19:25.455Z,67.46
2022-11-29T09:21:55.579Z,67.91
2022-11-29T09:24:25.905Z,68.53
2022-11-29T09:26:55.952Z,68.61
2022-11-29T09:29:26.198Z,68.12
2022-11-29T09:31:56.268Z,67.78
2022-11-29T09:34:29.045Z,67.53
2022-11-29T09:36:59.292Z,67.28
2022-11-29T09:39:29.391Z,67.14
2022-11-29T09:42:30.399Z,66.55
2022-11-29T09:45:06.993Z,65.78
2022-11-29T09:48:11.140Z,65.75
2022-11-29T09:50:51.015Z,64.75
2022-11-29T09:53:49.658Z,64.88
2022-11-29T09:56:25.943Z,65.69
2022-11-29T09:59:01.806Z,64.96
2022-11-29T10:01:37.574Z,64.87
2022-11-29T10:04:12.958Z,65.27
2022-11-29T10:06:52.264Z,65.09
2022-11-29T10:09:33.973Z,65.01
2022-11-29T10:12:15.195Z,65.33
2022-11-29T10:14:51.368Z,65.98
2022-11-29T10:17:32.848Z,65.54
2022-11-29T10:20:09.215Z,65.93
2022-11-29T10:22:49.464Z,66.09
2022-11-29T10:25:27.045Z,66.76
2022-11-29T10:27:57.489Z,66.49
2022-11-29T10:30:27.689Z,66.19
2022-11-29T10:33:00.661Z,66.31
2022-11-29T10:35:30.901Z,66.80
2022-11-29T10:38:29.801Z,66.61
2022-11-29T10:41:00.947Z,65.99
2022-11-29T10:43:31.087Z,66.11
2022-11-29T10:46:03.812Z,65.60
2022-11-29T10:48:36.978Z,65.90
2022-11-29T10:51:14.613Z,65.95
2022-11-29T10:53:48.471Z,65.73
2022-11-29T10:56:27.634Z,65.63
2022-11-29T10:59:03.264Z,65.25
2022-11-29T11:01:35.115Z,65.18
2022-11-29T11:04:07.487Z,65.24
2022-11-29T11:06:48.132Z,65.11
2022-11-29T11:09:34.616Z,64.79
2022-11-29T11:12:08.171Z,65.16
2022-11-29T11:14:40.958Z,65.29
2022-11-29T11:17:26.607Z,64.97
2022-11-29T11:20:04.671Z,65.13
2022-11-29T11:22:39.594Z,65.37
2022-11-29T11:25:30.279Z,65.08
2022-11-29T11:28:01.297Z,64.87
2022-11-29T11:30:32.310Z,64.86
2022-11-29T11:33:19.219Z,65.34
2022-11-29T11:36:04.272Z,64.93
2022-11-29T11:38:35.269Z,64.80
2022-11-29T11:41:20.364Z,65.48
2022-11-29T11:43:56.848Z,65.46
2022-11-29T11:46:47.249Z,65.27
2022-11-29T11:49:27.980Z,65.71
2022-11-29T11:51:58.329Z,65.71
2022-11-29T11:54:28.913Z,65.69
2022-11-29T11:57:02.731Z,66.05
2022-11-29T11:59:32.901Z,66.24
2022-11-29T12:02:05.819Z,66.54
2022-11-29T12:04:40.183Z,66.48
2022-11-29T12:07:33.791Z,66.49
2022-11-29T12:10:21.567Z,66.50
2022-11-29T12:13:01.167Z,67.02
2022-11-29T12:15:34.079Z,66.98
2022-11-29T12:18:08.836Z,67.62
2022-11-29T12:20:44.042Z,67.46
2022-11-29T12:23:30.051Z,67.65
2022-11-29T12:26:05.835Z,67.27
2022-11-29T12:28:43.062Z,67.72
2022-11-29T12:31:27.196Z,67.52
2022-11-29T12:34:06.467Z,67.85
2022-11-29T12:36:49.050Z,67.41
2022-11-29T12:39:39.712Z,67.43
2022-11-29T12:42:20.038Z,67.35
2022-11-29T12:45:02.099Z,67.73
2022-11-29T12:47:50.353Z,67.31
2022-11-29T12:50:35.068Z,67.34
2022-11-29T12:53:26.732Z,67.11
2022-11-29T12:56:07.162Z,66.83
2022-11-29T12:58:47.532Z,67.21
2022-11-29T13:01:32.537Z,67.09
2022-11-29T13:04:13.131Z,66.90
2022-11-29T13:06:51.324Z,66.71
2022-11-29T13:09:47.798Z,66.50
2022-11-29T13:12:28.591Z,66.64
2022-11-29T13:15:05.880Z,66.55
2022-11-29T13:17:45.433Z,66.98
2022-11-29T13:20:31.498Z,67.06
2022-11-29T13:23:14.835Z,66.27
2022-11-29T13:25:50.362Z,66.29
2022-11-29T13:28:25.849Z,66.51
2022-11-29T13:31:01.942Z,66.84
2022-11-29T13:33:42.672Z,66.87
2022-11-29T13:36:18.794Z,66.97
2022-11-29T13:38:59.751Z,67.68
2022-11-29T13:41:33.936Z,67.82
2022-11-29T13:44:12.945Z,67.95
2022-11-29T13:46:49.340Z,67.97
2022-11-29T13:49:49.148Z,68.58
2022-11-29T13:52:34.056Z,68.67
2022-11-29T13:55:10.086Z,69.31
2022-11-29T14:00:53.169Z,69.81
2022-11-29T14:03:34.316Z,69.96
2022-11-29T14:06:13.364Z,70.33
2022-11-29T14:11:48.859Z,71.72
2022-11-29T14:14:27.691Z,71.73
2022-11-29T14:17:02.207Z,71.99
2022-11-29T14:19:34.720Z,72.00
2022-11-29T14:22:32.912Z,72.44
2022-11-29T14:28:33.075Z,72.30
2022-11-29T14:31:04.323Z,72.68
2022-11-29T14:33:55.435Z,72.70
2022-11-29T14:36:46.186Z,72.79
2022-11-29T14:39:35.066Z,73.46
2022-11-29T14:42:18.772Z,73.21
2022-11-29T14:44:52.735Z,73.88
2022-11-29T14:47:30.078Z,74.28
2022-11-29T14:50:10.557Z,74.25
2022-11-29T14:52:42.834Z,74.20
2022-11-29T14:55:35.899Z,74.67
2022-11-29T14:58:23.851Z,75.18
2022-11-29T15:01:11.183Z,75.67
2022-11-29T15:03:52.620Z,75.55
2022-11-29T15:06:29.347Z,76.45
2022-11-29T15:09:05.730Z,76.37
2022-11-29T15:11:53.731Z,76.59
2022-11-29T15:14:34.916Z,76.44
2022-11-29T15:17:19.927Z,77.05
2022-11-29T15:20:10.851Z,76.56
2022-11-29T15:22:52.094Z,76.61
2022-11-29T15:25:24.717Z,76.80
2022-11-29T15:27:56.621Z,77.18
2022-11-29T15:30:38.512Z,77.15
2022-11-29T15:33:10.997Z,76.94
2022-11-29T15:35:41.205Z,77.19
2022-11-29T15:38:20.981Z,77.15
2022-11-29T15:40:55.208Z,77.11
2022-11-29T15:43:26.470Z,77.72
2022-11-29T15:46:00.298Z,77.62
2022-11-29T15:48:31.092Z,77.85
2022-11-29T15:51:09.767Z,77.71
2022-11-29T15:53:47.279Z,77.68
2022-11-29T15:56:22.931Z,77.83
2022-11-29T15:59:03.134Z,78.39
2022-11-29T16:01:36.629Z,78.14
2022-11-29T16:04:07.070Z,78.38
2022-11-29T16:06:43.838Z,78.74
2022-11-29T16:09:19.056Z,78.35
2022-11-29T16:11:51.248Z,78.65
2022-11-29T16:14:25.070Z,78.45
2022-11-29T16:17:01.551Z,78.19
2022-11-29T16:19:37.109Z,78.73
2022-11-29T16:22:17.733Z,79.41
2022-11-29T16:24:56.904Z,79.48
2022-11-29T16:27:27.489Z,79.24
2022-11-29T16:29:57.985Z,79.45
2022-11-29T16:32:33.332Z,79.43
2022-11-29T16:35:09.919Z,78.95
2022-11-29T16:37:43.394Z,78.96
2022-11-29T16:40:25.100Z,79.02
2022-11-29T16:43:21.221Z,78.90
2022-11-29T16:45:51.384Z,79.02
2022-11-29T16:48:38.230Z,79.35
2022-11-29T16:51:20.998Z,79.35
2022-11-29T16:53:51.921Z,79.51
2022-11-29T16:56:23.987Z,79.35
2022-11-29T16:59:25.537Z,79.35
2022-11-29T17:01:48.018Z,79.52
2022-11-29T17:04:23.508Z,79.34
2022-11-29T17:06:55.018Z,79.27
2022-11-29T17:09:28.130Z,79.18
2022-11-29T17:11:59.939Z,79.15
2022-11-29T17:14:30.386Z,79.16
2022-11-29T17:17:01.171Z,79.49
2022-11-29T17:19:34.692Z,79.37
2022-11-29T17:22:04.800Z,79.05
2022-11-29T17:24:36.992Z,79.08
2022-11-29T17:27:07.407Z,79.38
2022-11-29T17:29:37.574Z,79.51
2022-11-29T17:32:10.163Z,79.43
2022-11-29T17:34:42.993Z,79.05
2022-11-29T17:37:13.161Z,79.38
2022-11-29T17:39:44.943Z,79.53
2022-11-29T17:42:15.339Z,79.45
2022-11-29T17:44:45.496Z,79.34
2022-11-29T17:47:15.637Z,79.35
2022-11-29T17:49:48.863Z,79.51
2022-11-29T17:52:19.036Z,79.63
2022-11-29T17:54:49.252Z,79.56
2022-11-29T17:57:19.990Z,79.06
2022-11-29T17:59:50.213Z,79.49
2022-11-29T18:02:20.414Z,79.31
2022-11-29T18:04:53.192Z,79.24
2022-11-29T18:07:23.372Z,79.24
2022-11-29T18:09:53.957Z,79.29
2022-11-29T18:12:24.550Z,79.30
2022-11-29T18:14:54.608Z,79.27
2022-11-29T18:17:27.526Z,79.23
2022-11-29T18:20:00.350Z,79.10
2022-11-29T18:22:31.640Z,79.14
2022-11-29T18:25:36.415Z,79.26
2022-11-29T18:27:54.288Z,79.01
2022-11-29T18:30:24.372Z,79.15
2022-11-29T18:32:54.438Z,78.81
2022-11-29T18:35:28.200Z,79.06
2022-11-29T18:38:14.644Z,78.80
2022-11-29T18:40:47.392Z,79.13
2022-11-29T18:43:19.650Z,78.99
2022-11-29T18:45:49.830Z,78.83
2022-11-29T18:48:19.958Z,78.92
2022-11-29T18:50:52.892Z,78.63
2022-11-29T18:53:22.971Z,78.69
2022-11-29T18:56:05.984Z,79.32
2022-11-29T18:58:37.111Z,79.17
2022-11-29T19:01:09.023Z,79.54
2022-11-29T19:03:41.048Z,79.02
2022-11-29T19:06:18.684Z,79.03
2022-11-29T19:08:49.371Z,79.08
2022-11-29T19:11:21.095Z,78.59
2022-11-29T19:13:56.765Z,78.64
2022-11-29T19:16:27.830Z,78.56
2022-11-29T19:19:02.060Z,78.55
2022-11-29T19:21:36.158Z,78.53
2022-11-29T19:24:14.069Z,78.06
2022-11-29T19:26:45.840Z,78.10
2022-11-29T19:29:16.649Z,78.17
2022-11-29T19:31:50.515Z,77.95
2022-11-29T19:34:20.427Z,78.07
2022-11-29T19:36:53.180Z,78.89
2022-11-29T19:39:23.441Z,78.20
2022-11-29T19:41:53.609Z,78.54
2022-11-29T19:44:29.176Z,78.54
2022-11-29T19:47:00.148Z,78.65
2022-11-29T19:49:30.333Z,78.48
2022-11-29T19:52:03.007Z,78.82
2022-11-29T19:54:33.123Z,78.77
2022-11-29T19:57:03.179Z,79.01
2022-11-29T19:59:35.042Z,78.81
2022-11-29T20:02:05.479Z,78.83
2022-11-29T20:04:40.732Z,78.85
2022-11-29T20:07:14.029Z,78.41
2022-11-29T20:09:44.930Z,78.60
2022-11-29T20:12:15.196Z,78.01
2022-11-29T20:14:45.376Z,77.86
2022-11-29T20:17:15.451Z,78.38
2022-11-29T20:19:45.948Z,78.06
2022-11-29T20:22:18.973Z,78.09
2022-11-29T20:24:49.125Z,77.66
2022-11-29T20:27:19.305Z,78.21
2022-11-29T20:29:49.543Z,78.04
2022-11-29T20:32:19.959Z,77.85
2022-11-29T20:34:51.052Z,77.89
2022-11-29T20:37:39.143Z,78.01
2022-11-29T20:40:14.467Z,78.06
2022-11-29T20:43:01.018Z,78.34
2022-11-29T20:45:32.018Z,78.36
2022-11-29T20:48:11.393Z,78.29
2022-11-29T20:50:42.097Z,78.28
2022-11-29T20:53:29.328Z,78.19
2022-11-29T20:55:59.523Z,78.30
2022-11-29T20:58:29.712Z,78.34
2022-11-29T21:01:00.132Z,78.52
2022-11-29T21:03:31.719Z,78.83
2022-11-29T21:06:04.991Z,78.61
2022-11-29T21:08:37.815Z,78.97
2022-11-29T21:11:11.043Z,78.83
2022-11-29T21:13:41.905Z,78.83
2022-11-29T21:16:17.622Z,79.15
2022-11-29T21:18:51.067Z,78.71
2022-11-29T21:21:27.722Z,78.04
2022-11-29T21:24:07.871Z,77.30
2022-11-29T21:26:44.087Z,76.76
2022-11-29T21:29:19.393Z,76.61
2022-11-29T21:31:52.621Z,76.17
2022-11-29T21:34:23.076Z,75.89
2022-11-29T21:36:58.858Z,75.63
2022-11-29T21:39:35.411Z,75.28
2022-11-29T21:42:05.727Z,75.34
2022-11-29T21:44:35.811Z,75.20
2022-11-29T21:47:05.958Z,74.91
2022-11-29T21:49:36.050Z,74.63
2022-11-29T21:52:06.616Z,74.51
2022-11-29T21:54:39.346Z,74.14
2022-11-29T21:57:09.433Z,73.78
2022-11-29T21:59:39.627Z,74.03
2022-11-29T22:02:11.174Z,73.70
2022-11-29T22:04:41.400Z,73.48
2022-11-29T22:07:11.578Z,73.14
2022-11-29T22:09:44.278Z,72.73
2022-11-29T22:12:33.080Z,73.06
2022-11-29T22:15:04.177Z,71.95
2022-11-29T22:17:34.408Z,72.24
2022-11-29T22:20:04.452Z,71.18
2022-11-29T22:22:34.535Z,71.41
2022-11-29T22:25:07.900Z,70.94
2022-11-29T22:27:37.940Z,71.58
2022-11-29T22:30:09.497Z,71.37
2022-11-29T22:32:39.479Z,71.41
2022-11-29T22:35:10.008Z,71.77
2022-11-29T22:37:40.043Z,71.87
2022-11-29T22:40:13.740Z,72.13
2022-11-29T22:42:44.204Z,72.64
2022-11-29T22:45:14.583Z,72.62
2022-11-29T22:47:44.622Z,72.73
2022-11-29T22:50:15.648Z,72.95
2022-11-29T22:52:45.744Z,73.11
2022-11-29T22:55:18.448Z,72.36
2022-11-29T22:57:48.750Z,71.57
2022-11-29T23:00:19.626Z,71.78
2022-11-29T23:02:49.754Z,72.26
2022-11-29T23:05:19.969Z,72.25
2022-11-29T23:07:50.597Z,72.10
2022-11-29T23:10:23.471Z,72.14
2022-11-29T23:12:53.813Z,72.17
2022-11-29T23:15:23.842Z,72.01
2022-11-29T23:17:53.996Z,72.04
2022-11-29T23:20:25.616Z,71.82
2022-11-29T23:22:56.990Z,72.34
2022-11-29T23:25:29.790Z,72.43
2022-11-29T23:28:00.100Z,72.47
2022-11-29T23:30:30.168Z,72.62
2022-11-29T23:33:00.217Z,73.27
2022-11-29T23:35:30.357Z,73.17
2022-11-29T23:38:00.759Z,73.30
2022-11-29T23:40:35.540Z,73.99
2022-11-29T23:43:05.569Z,73.86
2022-11-29T23:45:35.683Z,74.31
2022-11-29T23:48:05.975Z,74.51
2022-11-29T23:50:40.948Z,74.44
2022-11-29T23:53:11.108Z,74.49
2022-11-29T23:55:44.277Z,74.65
2022-11-29T23:58:14.455Z,74.89
